createdAt,value
2022-11-14T00:01:08.857Z,6.60
2022-11-14T00:03:36.262Z,6.60
2022-11-14T00:06:06.965Z,6.60
2022-11-14T00:08:34.312Z,6.60
2022-11-14T00:11:02.467Z,6.60
2022-11-14T00:13:29.417Z,6.60
2022-11-14T00:15:56.447Z,6.60
2022-11-14T00:18:23.875Z,6.60
2022-11-14T00:20:54.527Z,6.60
2022-11-14T00:23:21.972Z,6.60
2022-11-14T00:25:49.604Z,6.60
2022-11-14T00:28:16.626Z,6.60
2022-11-14T00:30:49.606Z,6.60
2022-11-14T00:33:20.332Z,6.60
2022-11-14T00:35:53.061Z,6.60
2022-11-14T00:38:20.109Z,6.60
2022-11-14T00:40:47.154Z,6.50
2022-11-14T00:43:14.192Z,6.50
2022-11-14T00:45:44.671Z,6.50
2022-11-14T00:48:11.789Z,6.50
2022-11-14T00:50:38.786Z,6.50
2022-11-14T00:53:05.782Z,6.50
2022-11-14T00:55:32.813Z,6.50
2022-11-14T00:57:59.757Z,6.50
2022-11-14T01:00:27.108Z,6.50
2022-11-14T01:02:57.002Z,6.50
2022-11-14T01:05:25.334Z,6.50
2022-11-14T01:07:52.343Z,6.50
2022-11-14T01:10:19.904Z,6.50
2022-11-14T01:12:47.649Z,6.50
2022-11-14T01:15:14.646Z,6.50
2022-11-14T01:17:41.898Z,6.50
2022-11-14T01:20:09.140Z,6.50
2022-11-14T01:22:36.129Z,6.50
2022-11-14T01:25:03.229Z,6.50
2022-11-14T01:27:33.488Z,6.50
2022-11-14T01:30:00.400Z,6.50
2022-11-14T01:32:28.028Z,6.50
2022-11-14T01:34:55.200Z,6.50
2022-11-14T01:37:22.265Z,6.50
2022-11-14T01:39:49.208Z,6.50
2022-11-14T01:42:17.615Z,6.50
2022-11-14T01:44:54.139Z,6.60
2022-11-14T01:47:26.089Z,6.60
2022-11-14T01:50:04.984Z,6.60
2022-11-14T01:52:36.532Z,6.60
2022-11-14T01:55:07.348Z,6.60
2022-11-14T01:57:38.470Z,6.60
2022-11-14T02:00:09.280Z,6.60
2022-11-14T02:02:37.443Z,6.60
2022-11-14T02:05:07.874Z,6.60
2022-11-14T02:07:38.357Z,6.60
2022-11-14T02:10:16.363Z,6.60
2022-11-14T02:12:43.892Z,6.70
2022-11-14T02:15:11.025Z,6.70
2022-11-14T02:17:38.104Z,6.70
2022-11-14T02:20:08.410Z,6.80
2022-11-14T02:22:35.415Z,6.80
2022-11-14T02:25:02.931Z,6.90
2022-11-14T02:27:31.573Z,6.90
2022-11-14T02:30:11.787Z,6.90
2022-11-14T02:35:25.744Z,7.00
2022-11-14T02:37:52.750Z,7.00
2022-11-14T02:40:19.801Z,6.90
2022-11-14T02:42:46.777Z,7.00
2022-11-14T02:45:14.049Z,7.00
2022-11-14T02:47:41.132Z,6.90
2022-11-14T02:50:08.391Z,6.90
2022-11-14T02:52:35.732Z,6.90
2022-11-14T02:55:03.048Z,6.90
2022-11-14T02:57:30.078Z,6.80
2022-11-14T02:59:57.116Z,6.80
2022-11-14T03:02:24.022Z,6.80
2022-11-14T03:04:50.966Z,6.70
2022-11-14T03:07:18.010Z,6.70
2022-11-14T03:09:45.050Z,6.70
2022-11-14T03:12:12.178Z,6.80
2022-11-14T03:14:39.151Z,6.80
2022-11-14T03:17:06.156Z,6.80
2022-11-14T03:19:33.131Z,6.90
2022-11-14T03:22:00.068Z,6.90
2022-11-14T03:24:27.066Z,7.00
2022-11-14T03:26:54.072Z,7.00
2022-11-14T03:29:21.149Z,6.90
2022-11-14T03:31:48.166Z,6.90
2022-11-14T03:34:15.149Z,6.90
2022-11-14T03:36:42.128Z,6.90
2022-11-14T03:39:09.358Z,7.00
2022-11-14T03:41:36.345Z,7.00
2022-11-14T03:44:03.351Z,6.90
2022-11-14T03:46:30.367Z,6.90
2022-11-14T03:48:57.316Z,6.90
2022-11-14T03:51:24.322Z,6.90
2022-11-14T03:53:51.293Z,6.90
2022-11-14T03:56:18.294Z,6.90
2022-11-14T03:58:45.243Z,6.90
2022-11-14T04:01:12.332Z,6.90
2022-11-14T04:03:39.584Z,6.90
2022-11-14T04:06:06.747Z,6.90
2022-11-14T04:08:33.935Z,6.90
2022-11-14T04:11:01.233Z,6.90
2022-11-14T04:13:28.206Z,6.90
2022-11-14T04:15:56.776Z,6.90
2022-11-14T04:18:25.002Z,6.90
2022-11-14T04:20:52.806Z,7.00
2022-11-14T04:23:20.024Z,7.00
2022-11-14T04:25:47.473Z,7.00
2022-11-14T04:28:14.570Z,7.00
2022-11-14T04:30:41.751Z,7.00
2022-11-14T04:33:08.756Z,7.10
2022-11-14T04:35:35.705Z,7.00
2022-11-14T04:38:02.749Z,7.00
2022-11-14T04:40:29.791Z,7.10
2022-11-14T04:42:56.749Z,7.00
2022-11-14T04:45:23.815Z,7.00
2022-11-14T04:47:50.795Z,7.00
2022-11-14T04:50:17.956Z,7.00
2022-11-14T04:52:45.069Z,7.00
2022-11-14T04:55:12.081Z,7.00
2022-11-14T04:57:39.033Z,7.00
2022-11-14T05:00:07.445Z,7.00
2022-11-14T05:02:34.419Z,7.00
2022-11-14T05:05:01.852Z,7.00
2022-11-14T05:07:28.926Z,6.90
2022-11-14T05:09:55.877Z,6.90
2022-11-14T05:12:22.905Z,6.90
2022-11-14T05:14:49.917Z,6.90
2022-11-14T05:17:17.000Z,6.90
2022-11-14T05:19:43.977Z,6.90
2022-11-14T05:22:11.270Z,6.90
2022-11-14T05:24:38.225Z,6.90
2022-11-14T05:27:05.174Z,7.00
2022-11-14T05:29:32.181Z,7.00
2022-11-14T05:31:59.299Z,6.90
2022-11-14T05:34:26.780Z,7.00
2022-11-14T05:36:53.895Z,7.00
2022-11-14T05:39:20.900Z,7.00
2022-11-14T05:41:47.872Z,7.00
2022-11-14T05:44:14.847Z,7.00
2022-11-14T05:46:41.843Z,7.00
2022-11-14T05:49:08.789Z,7.00
2022-11-14T05:51:35.876Z,7.00
2022-11-14T05:54:02.916Z,7.00
2022-11-14T05:56:29.878Z,7.00
2022-11-14T05:58:56.836Z,7.00
2022-11-14T06:01:23.968Z,7.00
2022-11-14T06:03:51.066Z,7.10
2022-11-14T06:06:20.829Z,7.10
2022-11-14T06:08:48.826Z,7.10
2022-11-14T06:11:18.886Z,7.10
2022-11-14T06:13:46.993Z,7.10
2022-11-14T06:16:17.006Z,7.10
2022-11-14T06:18:44.807Z,7.10
2022-11-14T06:21:14.799Z,7.10
2022-11-14T06:23:42.522Z,7.10
2022-11-14T06:26:22.463Z,7.10
2022-11-14T06:28:51.590Z,7.10
2022-11-14T06:31:20.379Z,7.10
2022-11-14T06:33:47.889Z,7.10
2022-11-14T06:36:15.368Z,7.20
2022-11-14T06:38:43.621Z,7.20
2022-11-14T06:41:13.318Z,7.20
2022-11-14T06:43:45.300Z,7.30
2022-11-14T06:46:14.704Z,7.30
2022-11-14T06:48:42.950Z,7.40
2022-11-14T06:51:12.592Z,7.40
2022-11-14T06:53:40.290Z,7.50
2022-11-14T06:56:08.705Z,7.50
2022-11-14T06:58:42.334Z,7.50
2022-11-14T07:01:14.118Z,7.50
2022-11-14T07:03:42.455Z,7.50
2022-11-14T07:06:11.647Z,7.50
2022-11-14T07:08:38.702Z,7.50
2022-11-14T07:11:23.750Z,7.50
2022-11-14T07:13:55.958Z,7.50
2022-11-14T07:16:31.463Z,7.50
2022-11-14T07:19:02.728Z,7.60
2022-11-14T07:21:31.050Z,7.60
2022-11-14T07:23:58.420Z,7.60
2022-11-14T07:26:25.934Z,7.60
2022-11-14T07:28:56.587Z,7.70
2022-11-14T07:31:26.492Z,7.80
2022-11-14T07:33:54.681Z,7.80
2022-11-14T07:36:21.710Z,7.80
2022-11-14T07:38:48.684Z,7.90
2022-11-14T07:41:17.199Z,7.90
2022-11-14T07:43:45.030Z,8.00
2022-11-14T07:46:16.377Z,8.00
2022-11-14T07:48:44.446Z,8.10
2022-11-14T07:51:17.208Z,8.10
2022-11-14T07:53:44.686Z,8.10
2022-11-14T07:56:13.359Z,8.20
2022-11-14T07:58:41.665Z,8.20
2022-11-14T08:01:11.800Z,8.20
2022-11-14T08:03:45.097Z,8.20
2022-11-14T08:06:15.550Z,8.30
2022-11-14T08:08:42.597Z,8.30
2022-11-14T08:11:09.897Z,8.30
2022-11-14T08:13:36.926Z,8.30
2022-11-14T08:16:12.921Z,8.40
2022-11-14T08:18:40.828Z,8.40
2022-11-14T08:21:09.113Z,8.50
2022-11-14T08:23:36.450Z,8.50
2022-11-14T08:26:03.657Z,8.50
2022-11-14T08:28:31.122Z,8.50
2022-11-14T08:31:03.260Z,8.60
2022-11-14T08:33:31.528Z,8.60
2022-11-14T08:36:06.789Z,8.60
2022-11-14T08:38:35.200Z,8.60
2022-11-14T08:41:03.177Z,8.60
2022-11-14T08:43:31.778Z,8.70
2022-11-14T08:46:01.735Z,8.70
2022-11-14T08:48:30.152Z,8.80
2022-11-14T08:50:58.021Z,8.80
2022-11-14T08:53:25.394Z,8.90
2022-11-14T08:55:52.354Z,8.90
2022-11-14T08:58:19.306Z,9.00
2022-11-14T09:00:46.307Z,9.00
2022-11-14T09:03:16.239Z,9.00
2022-11-14T09:05:43.526Z,9.10
2022-11-14T09:08:10.496Z,9.20
2022-11-14T09:10:38.046Z,9.30
2022-11-14T09:13:05.010Z,9.30
2022-11-14T09:15:33.991Z,9.40
2022-11-14T09:18:01.054Z,9.40
2022-11-14T09:20:34.063Z,9.40
2022-11-14T09:23:04.470Z,9.40
2022-11-14T09:25:31.778Z,9.40
2022-11-14T09:27:59.105Z,9.50
2022-11-14T09:30:26.133Z,9.60
2022-11-14T09:32:53.196Z,9.60
2022-11-14T09:35:20.185Z,9.70
2022-11-14T09:37:47.168Z,9.80
2022-11-14T09:40:14.713Z,9.80
2022-11-14T09:43:06.866Z,9.80
2022-11-14T09:45:36.968Z,9.90
2022-11-14T09:48:16.488Z,9.90
2022-11-14T09:50:53.796Z,9.90
2022-11-14T09:53:31.509Z,10.00
2022-11-14T09:55:59.688Z,10.00
2022-11-14T09:58:27.871Z,10.00
2022-11-14T10:01:11.672Z,10.00
2022-11-14T10:04:04.832Z,10.10
2022-11-14T10:06:41.118Z,10.20
2022-11-14T10:09:37.217Z,10.30
2022-11-14T10:12:13.090Z,10.40
2022-11-14T10:15:11.148Z,10.40
2022-11-14T10:17:41.239Z,10.40
2022-11-14T10:20:26.150Z,10.50
2022-11-14T10:23:08.178Z,10.50
2022-11-14T10:25:55.177Z,10.60
2022-11-14T10:28:54.086Z,10.70
2022-11-14T10:31:30.023Z,10.70
2022-11-14T10:34:18.542Z,10.80
2022-11-14T10:36:51.436Z,10.90
2022-11-14T10:39:24.743Z,10.90
2022-11-14T10:41:58.840Z,11.00
2022-11-14T10:44:38.356Z,11.10
2022-11-14T10:47:13.993Z,11.10
2022-11-14T10:49:42.379Z,11.10
2022-11-14T10:52:19.889Z,11.20
2022-11-14T10:54:56.598Z,11.20
2022-11-14T10:57:23.931Z,11.10
2022-11-14T10:59:56.690Z,11.20
2022-11-14T11:02:23.852Z,11.20
2022-11-14T11:04:50.828Z,11.20
2022-11-14T11:07:45.662Z,11.20
2022-11-14T11:10:42.154Z,11.20
2022-11-14T11:13:15.762Z,11.20
2022-11-14T11:15:43.479Z,11.30
2022-11-14T11:18:29.108Z,11.30
2022-11-14T11:21:06.491Z,11.30
2022-11-14T11:23:34.773Z,11.30
2022-11-14T11:26:09.527Z,11.30
2022-11-14T11:28:37.597Z,11.30
2022-11-14T11:31:11.082Z,11.30
2022-11-14T11:33:39.952Z,11.30
2022-11-14T11:36:16.441Z,11.30
2022-11-14T11:38:44.536Z,11.20
2022-11-14T11:44:19.579Z,11.20
2022-11-14T11:47:01.097Z,11.30
2022-11-14T11:49:28.062Z,11.30
2022-11-14T11:51:57.216Z,11.40
2022-11-14T11:54:33.664Z,11.40
2022-11-14T11:57:04.264Z,11.40
2022-11-14T11:59:40.354Z,11.40
2022-11-14T12:02:27.411Z,11.50
2022-11-14T12:04:57.101Z,11.50
2022-11-14T12:07:41.469Z,11.50
2022-11-14T12:10:17.985Z,11.50
2022-11-14T12:12:44.893Z,11.50
2022-11-14T12:15:24.506Z,11.60
2022-11-14T12:17:57.214Z,11.60
2022-11-14T12:21:13.686Z,11.60
2022-11-14T12:23:52.606Z,11.70
2022-11-14T12:26:48.501Z,11.60
2022-11-14T12:29:31.386Z,11.60
2022-11-14T12:32:05.031Z,11.60
2022-11-14T12:34:45.666Z,11.60
2022-11-14T12:37:38.305Z,11.60
2022-11-14T12:40:09.014Z,11.70
2022-11-14T12:42:36.230Z,11.70
2022-11-14T12:45:03.337Z,11.70
2022-11-14T12:47:30.330Z,11.80
2022-11-14T12:49:59.820Z,11.80
2022-11-14T12:52:44.802Z,11.80
2022-11-14T12:55:26.998Z,11.90
2022-11-14T12:58:07.077Z,12.00
2022-11-14T13:00:46.041Z,12.00
2022-11-14T13:03:39.209Z,12.00
2022-11-14T13:06:24.054Z,12.00
2022-11-14T13:09:21.069Z,12.00
2022-11-14T13:12:07.609Z,12.00
2022-11-14T13:15:13.049Z,11.90
2022-11-14T13:17:58.961Z,11.90
2022-11-14T13:20:54.545Z,11.90
2022-11-14T13:23:28.446Z,11.80
2022-11-14T13:26:10.614Z,11.80
2022-11-14T13:28:37.634Z,11.80
2022-11-14T13:31:17.093Z,11.80
2022-11-14T13:33:51.408Z,11.80
2022-11-14T13:36:40.444Z,11.80
2022-11-14T13:39:10.393Z,11.80
2022-11-14T13:42:06.676Z,11.80
2022-11-14T13:45:18.049Z,11.80
2022-11-14T13:48:12.604Z,11.80
2022-11-14T13:50:41.221Z,11.70
2022-11-14T13:53:14.266Z,11.70
2022-11-14T13:55:59.512Z,11.70
2022-11-14T13:58:47.774Z,11.60
2022-11-14T14:01:29.812Z,11.50
2022-11-14T14:04:15.540Z,11.40
2022-11-14T14:07:04.426Z,11.30
2022-11-14T14:09:52.486Z,11.20
2022-11-14T14:12:53.620Z,11.20
2022-11-14T14:15:33.808Z,11.10
2022-11-14T14:18:00.995Z,11.00
2022-11-14T14:20:50.960Z,10.90
2022-11-14T14:23:35.912Z,10.90
2022-11-14T14:26:18.559Z,10.80
2022-11-14T14:28:53.873Z,10.70
2022-11-14T14:31:24.126Z,10.60
2022-11-14T14:33:52.462Z,10.50
2022-11-14T14:36:25.466Z,10.50
2022-11-14T14:39:18.007Z,10.40
2022-11-14T14:41:45.335Z,10.30
2022-11-14T14:44:27.347Z,10.30
2022-11-14T14:46:55.591Z,10.20
2022-11-14T14:49:30.640Z,10.10
2022-11-14T14:51:58.846Z,10.00
2022-11-14T14:54:29.565Z,9.90
2022-11-14T14:57:00.990Z,9.90
2022-11-14T14:59:30.895Z,9.80
2022-11-14T15:01:58.701Z,9.70
2022-11-14T15:04:28.902Z,9.70
2022-11-14T15:06:57.753Z,9.60
2022-11-14T15:09:32.230Z,9.60
2022-11-14T15:12:01.511Z,9.50
2022-11-14T15:14:32.356Z,9.40
2022-11-14T15:17:00.910Z,9.30
2022-11-14T15:19:46.167Z,9.30
2022-11-14T15:22:16.108Z,9.20
2022-11-14T15:24:43.245Z,9.10
2022-11-14T15:27:15.842Z,9.00
2022-11-14T15:29:53.194Z,9.00
2022-11-14T15:32:23.855Z,8.90
2022-11-14T15:35:25.683Z,8.80
2022-11-14T15:38:28.818Z,8.80
2022-11-14T15:41:09.696Z,8.70
2022-11-14T15:43:51.726Z,8.70
2022-11-14T15:46:40.325Z,8.70
2022-11-14T15:49:19.983Z,8.60
2022-11-14T15:51:48.929Z,8.60
2022-11-14T15:54:38.022Z,8.60
2022-11-14T15:57:16.735Z,8.50
2022-11-14T15:59:43.992Z,8.50
2022-11-14T16:02:20.885Z,8.50
2022-11-14T16:04:49.748Z,8.50
2022-11-14T16:07:20.386Z,8.40
2022-11-14T16:09:49.021Z,8.40
2022-11-14T16:12:16.639Z,8.40
2022-11-14T16:14:43.984Z,8.40
2022-11-14T16:17:17.966Z,8.40
2022-11-14T16:19:45.203Z,8.40
2022-11-14T16:22:15.953Z,8.40
2022-11-14T16:24:42.935Z,8.40
2022-11-14T16:27:10.439Z,8.40
2022-11-14T16:29:37.427Z,8.40
2022-11-14T16:32:04.583Z,8.30
2022-11-14T16:34:31.820Z,8.30
2022-11-14T16:37:01.211Z,8.30
2022-11-14T16:39:29.773Z,8.30
2022-11-14T16:42:03.320Z,8.30
2022-11-14T16:44:35.863Z,8.30
2022-11-14T16:47:08.462Z,8.30
2022-11-14T16:49:36.211Z,8.20
2022-11-14T16:52:09.513Z,8.20
2022-11-14T16:54:37.813Z,8.20
2022-11-14T16:57:05.921Z,8.20
2022-11-14T16:59:33.736Z,8.20
2022-11-14T17:02:01.974Z,8.20
2022-11-14T17:04:29.975Z,8.20
2022-11-14T17:06:57.437Z,8.20
2022-11-14T17:09:24.554Z,8.10
2022-11-14T17:11:52.548Z,8.20
2022-11-14T17:14:20.981Z,8.10
2022-11-14T17:16:49.391Z,8.10
2022-11-14T17:19:16.677Z,8.10
2022-11-14T17:21:44.817Z,8.10
2022-11-14T17:24:15.535Z,8.10
2022-11-14T17:26:43.006Z,8.10
2022-11-14T17:29:13.716Z,8.10
2022-11-14T17:31:46.718Z,8.10
2022-11-14T17:34:15.087Z,8.10
2022-11-14T17:36:43.872Z,8.10
2022-11-14T17:39:12.024Z,8.00
2022-11-14T17:41:43.398Z,8.00
2022-11-14T17:44:14.577Z,8.00
2022-11-14T17:46:43.144Z,8.00
2022-11-14T17:49:11.931Z,8.00
2022-11-14T17:51:40.809Z,8.00
2022-11-14T17:54:10.238Z,8.00
2022-11-14T17:56:45.780Z,8.00
2022-11-14T17:59:16.187Z,7.90
2022-11-14T18:01:44.630Z,7.90
2022-11-14T18:04:17.518Z,7.90
2022-11-14T18:07:22.757Z,7.90
2022-11-14T18:09:51.872Z,8.00
2022-11-14T18:12:20.417Z,8.00
2022-11-14T18:14:47.810Z,8.00
2022-11-14T18:17:15.321Z,8.00
2022-11-14T18:19:42.898Z,8.00
2022-11-14T18:22:10.818Z,8.00
2022-11-14T18:24:38.237Z,8.00
2022-11-14T18:27:06.294Z,8.00
2022-11-14T18:29:35.129Z,8.00
2022-11-14T18:32:02.992Z,8.00
2022-11-14T18:34:30.757Z,8.00
2022-11-14T18:36:58.653Z,8.00
2022-11-14T18:39:27.192Z,8.00
2022-11-14T18:41:54.885Z,8.00
2022-11-14T18:44:24.786Z,8.10
2022-11-14T18:46:54.742Z,8.10
2022-11-14T18:49:22.619Z,8.10
2022-11-14T18:51:50.431Z,8.10
2022-11-14T18:54:19.232Z,8.10
2022-11-14T18:56:47.075Z,8.10
2022-11-14T18:59:15.144Z,8.10
2022-11-14T19:01:42.783Z,8.10
2022-11-14T19:04:12.159Z,8.10
2022-11-14T19:06:42.013Z,8.10
2022-11-14T19:09:13.218Z,8.10
2022-11-14T19:11:59.054Z,8.10
2022-11-14T19:14:30.077Z,8.10
2022-11-14T19:16:57.880Z,8.10
2022-11-14T19:19:26.011Z,8.20
2022-11-14T19:21:53.624Z,8.20
2022-11-14T19:24:21.123Z,8.20
2022-11-14T19:26:49.396Z,8.30
2022-11-14T19:29:18.052Z,8.30
2022-11-14T19:31:45.738Z,8.40
2022-11-14T19:34:13.670Z,8.40
2022-11-14T19:39:30.738Z,8.40
2022-11-14T19:41:58.573Z,8.40
2022-11-14T19:44:26.632Z,8.40
2022-11-14T19:46:54.309Z,8.50
2022-11-14T19:49:23.950Z,8.40
2022-11-14T19:51:51.721Z,8.40
2022-11-14T19:54:19.797Z,8.40
2022-11-14T19:56:47.694Z,8.30
2022-11-14T19:59:18.957Z,8.30
2022-11-14T20:01:56.119Z,8.30
2022-11-14T20:04:26.212Z,8.20
2022-11-14T20:06:53.777Z,8.20
2022-11-14T20:09:21.938Z,8.20
2022-11-14T20:11:49.429Z,8.10
2022-11-14T20:14:18.003Z,8.10
2022-11-14T20:16:47.889Z,8.10
2022-11-14T20:19:16.999Z,8.00
2022-11-14T20:21:44.946Z,8.00
2022-11-14T20:24:14.982Z,8.00
2022-11-14T20:26:42.814Z,7.90
2022-11-14T20:29:11.980Z,7.90
2022-11-14T20:31:39.546Z,7.80
2022-11-14T20:34:07.544Z,7.80
2022-11-14T20:36:56.742Z,7.80
2022-11-14T20:39:22.573Z,7.80
2022-11-14T20:41:51.604Z,7.70
2022-11-14T20:44:21.317Z,7.70
2022-11-14T20:46:48.767Z,7.70
2022-11-14T20:49:19.321Z,7.70
2022-11-14T20:51:49.532Z,7.60
2022-11-14T20:54:16.974Z,7.60
2022-11-14T20:56:44.681Z,7.60
2022-11-14T20:59:12.306Z,7.60
2022-11-14T21:01:43.819Z,7.60
2022-11-14T21:04:11.254Z,7.60
2022-11-14T21:06:38.713Z,7.70
2022-11-14T21:09:06.358Z,7.70
2022-11-14T21:11:33.585Z,7.70
2022-11-14T21:14:00.938Z,7.70
2022-11-14T21:16:36.843Z,7.70
2022-11-14T21:19:05.704Z,7.60
2022-11-14T21:21:37.875Z,7.60
2022-11-14T21:24:05.580Z,7.60
2022-11-14T21:26:36.325Z,7.60
2022-11-14T21:29:10.240Z,7.60
2022-11-14T21:31:43.226Z,7.60
2022-11-14T21:34:15.429Z,7.50
2022-11-14T21:36:46.024Z,7.50
2022-11-14T21:39:15.722Z,7.50
2022-11-14T21:41:45.323Z,7.40
2022-11-14T21:44:14.659Z,7.40
2022-11-14T21:46:42.042Z,7.40
2022-11-14T21:49:10.087Z,7.30
2022-11-14T21:51:37.078Z,7.30
2022-11-14T21:54:05.301Z,7.30
2022-11-14T21:56:37.352Z,7.30
2022-11-14T21:59:21.643Z,7.40
2022-11-14T22:02:09.315Z,7.40
2022-11-14T22:04:37.529Z,7.40
2022-11-14T22:07:08.997Z,7.40
2022-11-14T22:09:39.808Z,7.40
2022-11-14T22:12:09.957Z,7.40
2022-11-14T22:14:36.945Z,7.40
2022-11-14T22:17:03.941Z,7.40
2022-11-14T22:19:30.931Z,7.40
2022-11-14T22:21:57.908Z,7.50
2022-11-14T22:24:24.946Z,7.50
2022-11-14T22:26:52.280Z,7.50
2022-11-14T22:29:19.254Z,7.60
2022-11-14T22:31:46.350Z,7.60
2022-11-14T22:34:13.969Z,7.60
2022-11-14T22:36:41.006Z,7.60
2022-11-14T22:39:07.952Z,7.70
2022-11-14T22:41:34.966Z,7.70
2022-11-14T22:44:02.309Z,7.70
2022-11-14T22:46:30.080Z,7.70
2022-11-14T22:48:58.290Z,7.70
2022-11-14T22:51:27.382Z,7.70
2022-11-14T22:53:56.501Z,7.70
2022-11-14T22:56:27.783Z,7.70
2022-11-14T22:58:55.114Z,7.70
2022-11-14T23:01:32.261Z,7.80
2022-11-14T23:04:01.870Z,7.70
2022-11-14T23:06:30.527Z,7.70
2022-11-14T23:08:58.674Z,7.70
2022-11-14T23:11:29.189Z,7.70
2022-11-14T23:13:57.498Z,7.70
2022-11-14T23:16:26.915Z,7.70
2022-11-14T23:18:56.703Z,7.70
2022-11-14T23:21:29.279Z,7.80
2022-11-14T23:24:07.145Z,7.70
2022-11-14T23:26:34.685Z,7.70
2022-11-14T23:29:01.710Z,7.70
2022-11-14T23:31:28.785Z,7.70
2022-11-14T23:33:57.959Z,7.70
2022-11-14T23:36:25.362Z,7.80
2022-11-14T23:38:54.019Z,7.80
2022-11-14T23:41:23.831Z,7.70
2022-11-14T23:43:50.859Z,7.70
2022-11-14T23:46:17.893Z,7.80
2022-11-14T23:48:44.882Z,7.80
2022-11-14T23:51:13.939Z,7.80
2022-11-14T23:53:42.124Z,7.80
2022-11-14T23:56:13.482Z,7.80
2022-11-14T23:58:41.769Z,7.80
